Time;durP1;ratioP1;P1;durP2;ratioP2;P2;SDS_P1;SDS_P2;PMS_P1;PMS_P2;Temp;Humidity;BMP_temperature;BMP_pressure;BME280_temperature;BME280_humidity;BME280_pressure;Samples;Min_cycle;Max_cycle;Signal;HPM_P1;HPM_P2
2021/07/02 00:00:32;;;;;;;5.38;1.90;;;;;;;17.92;93.25;92761.38;5051159;28;20041;-83
2021/07/02 00:02:59;;;;;;;2.78;1.60;;;;;;;17.95;93.78;92768.63;5050813;28;20216;-82
2021/07/02 00:05:27;;;;;;;2.50;1.55;;;;;;;17.92;94.51;92770.97;5050943;28;20459;-82
2021/07/02 00:07:54;;;;;;;2.70;1.27;;;;;;;17.55;97.14;92773.66;5050633;28;20053;-82
2021/07/02 00:10:21;;;;;;;2.88;1.92;;;;;;;17.32;99.27;92770.59;5050798;28;20421;-82
2021/07/02 00:12:48;;;;;;;2.40;1.73;;;;;;;17.47;97.88;92772.41;5050918;28;20048;-83
2021/07/02 00:15:15;;;;;;;3.90;1.90;;;;;;;17.63;96.15;92767.16;5050666;28;20053;-82
2021/07/02 00:17:42;;;;;;;2.90;1.77;;;;;;;17.75;95.58;92762.47;5050736;28;20049;-83
2021/07/02 00:20:09;;;;;;;2.97;1.42;;;;;;;17.84;95.37;92767.88;5050518;28;20099;-82
2021/07/02 00:22:37;;;;;;;2.88;2.13;;;;;;;17.83;94.74;92776.69;5050639;28;20045;-82
2021/07/02 00:25:06;;;;;;;4.13;3.13;;;;;;;17.85;94.67;92798.00;5050859;28;20049;-82
2021/07/02 00:27:32;;;;;;;3.25;2.15;;;;;;;17.84;95.07;92799.06;5024290;28;20044;-82
2021/07/02 00:29:59;;;;;;;2.97;1.90;;;;;;;17.85;94.57;92802.41;5050112;28;20056;-82
2021/07/02 00:32:26;;;;;;;2.78;1.42;;;;;;;17.85;94.61;92805.81;5050579;28;20041;-83
2021/07/02 00:34:53;;;;;;;2.85;2.08;;;;;;;17.83;94.36;92794.13;5050420;28;20048;-83
2021/07/02 00:37:20;;;;;;;3.03;1.65;;;;;;;17.89;94.65;92801.66;5050729;28;20045;-82
2021/07/02 00:39:48;;;;;;;8.63;3.20;;;;;;;17.88;94.29;92800.06;5050491;28;20045;-83
2021/07/02 00:42:15;;;;;;;2.03;1.33;;;;;;;17.90;93.73;92792.81;5050606;28;20143;-83
2021/07/02 00:44:44;;;;;;;2.33;1.38;;;;;;;17.92;93.85;92802.16;5050519;28;20053;-83
2021/07/02 00:47:11;;;;;;;4.15;2.03;;;;;;;17.93;93.51;92814.88;5050273;28;20485;-82
2021/07/02 00:49:39;;;;;;;3.22;2.05;;;;;;;17.88;93.55;92820.84;5050311;28;20064;-83
2021/07/02 00:52:07;;;;;;;2.97;2.38;;;;;;;17.82;93.63;92814.13;5049105;28;20052;-82
2021/07/02 00:54:34;;;;;;;2.38;1.88;;;;;;;17.67;95.38;92822.72;5049953;28;20049;-83
2021/07/02 00:57:05;;;;;;;2.40;1.23;;;;;;;17.22;98.63;92817.34;5044272;28;20045;-82
2021/07/02 00:59:32;;;;;;;3.38;1.77;;;;;;;17.07;99.72;92813.72;5050418;28;20057;-82
2021/07/02 01:01:59;;;;;;;1.92;1.60;;;;;;;16.95;100.00;92816.53;5049822;28;20106;-83
2021/07/02 01:04:26;;;;;;;3.63;2.35;;;;;;;16.93;100.00;92805.63;5050444;28;20049;-82
2021/07/02 01:06:54;;;;;;;3.35;1.70;;;;;;;16.98;100.00;92811.88;5052928;28;20443;-82
2021/07/02 01:09:25;;;;;;;5.80;2.13;;;;;;;16.98;100.00;92817.81;5046535;28;20468;-83
2021/07/02 01:11:52;;;;;;;4.20;1.80;;;;;;;16.93;100.00;92817.81;5010762;28;20054;-83
2021/07/02 01:14:20;;;;;;;2.10;1.40;;;;;;;17.17;100.00;92823.31;5023066;28;20049;-83
2021/07/02 01:16:47;;;;;;;4.50;2.13;;;;;;;17.35;100.00;92813.44;5024554;28;20049;-83
2021/07/02 01:19:14;;;;;;;1.90;1.38;;;;;;;17.50;100.00;92815.25;5022910;28;20508;-83
2021/07/02 01:21:42;;;;;;;3.42;1.83;;;;;;;17.62;100.00;92815.75;5023367;28;20462;-84
2021/07/02 01:24:09;;;;;;;2.30;1.08;;;;;;;17.69;100.00;92806.91;5024337;28;20492;-83
2021/07/02 01:26:36;;;;;;;3.08;1.50;;;;;;;17.67;100.00;92794.16;5022958;28;20104;-83
2021/07/02 01:29:03;;;;;;;3.47;2.42;;;;;;;17.89;100.00;92816.44;5022779;28;20053;-83
2021/07/02 01:31:30;;;;;;;4.75;1.70;;;;;;;18.07;100.00;92814.34;5024370;28;20042;-83
2021/07/02 01:33:57;;;;;;;1.27;0.80;;;;;;;18.13;100.00;92818.47;5023774;28;20049;-83
2021/07/02 01:36:26;;;;;;;1.27;0.93;;;;;;;18.20;99.53;92813.78;5022756;28;20045;-83
2021/07/02 01:38:55;;;;;;;2.50;1.05;;;;;;;18.24;99.24;92811.41;5025378;28;20050;-82
2021/07/02 01:41:21;;;;;;;2.20;1.55;;;;;;;18.29;97.60;92809.56;5022766;28;20057;-82
2021/07/02 01:43:49;;;;;;;3.88;1.73;;;;;;;18.27;97.74;92813.47;5023890;28;20481;-83
2021/07/02 01:46:16;;;;;;;1.98;1.05;;;;;;;18.22;97.55;92808.28;5022478;28;20048;-83
2021/07/02 01:48:44;;;;;;;2.88;1.48;;;;;;;18.27;97.33;92805.66;5022631;28;20422;-83
2021/07/02 01:51:11;;;;;;;3.30;1.63;;;;;;;18.37;95.29;92804.88;5023963;28;20045;-82
2021/07/02 01:53:38;;;;;;;2.63;1.15;;;;;;;18.39;95.20;92805.38;5022692;28;20045;-83
2021/07/02 01:56:06;;;;;;;3.13;1.33;;;;;;;18.41;94.75;92801.44;5014263;28;20053;-83
2021/07/02 01:58:33;;;;;;;1.48;1.17;;;;;;;18.42;94.58;92787.41;5013449;28;20057;-84
2021/07/02 02:01:00;;;;;;;1.92;1.38;;;;;;;18.40;94.79;92789.50;5013404;28;20050;-83
2021/07/02 02:03:27;;;;;;;3.08;1.40;;;;;;;18.41;94.27;92788.44;5013637;28;20050;-83
2021/07/02 02:05:54;;;;;;;2.67;1.48;;;;;;;18.38;94.21;92781.16;5013489;28;20049;-83
2021/07/02 02:08:21;;;;;;;1.63;1.35;;;;;;;18.39;93.92;92776.75;5013190;28;20457;-83
2021/07/02 02:10:48;;;;;;;2.55;1.63;;;;;;;18.42;93.74;92778.81;5013299;28;20057;-83
2021/07/02 02:13:16;;;;;;;3.10;1.80;;;;;;;18.48;93.02;92769.97;5013229;28;20050;-83
2021/07/02 02:15:42;;;;;;;1.75;0.82;;;;;;;18.49;92.64;92763.69;5013073;28;20049;-83
2021/07/02 02:18:09;;;;;;;1.48;1.00;;;;;;;18.45;92.24;92775.69;5012916;28;20108;-83
2021/07/02 02:20:36;;;;;;;2.00;0.95;;;;;;;18.29;93.31;92770.56;5013111;28;20100;-83
2021/07/02 02:23:03;;;;;;;4.65;1.40;;;;;;;18.30;92.80;92777.31;5012922;28;20050;-83
2021/07/02 02:25:30;;;;;;;1.67;1.25;;;;;;;18.36;92.81;92783.28;5012983;28;20058;-83
2021/07/02 02:27:57;;;;;;;2.05;1.48;;;;;;;18.27;93.06;92784.88;5013065;28;20064;-83
2021/07/02 02:30:25;;;;;;;1.88;1.05;;;;;;;18.35;92.35;92780.94;5013063;28;20116;-82
2021/07/02 02:32:52;;;;;;;0.98;0.60;;;;;;;18.39;92.13;92772.34;5013080;28;20050;-83
2021/07/02 02:35:19;;;;;;;2.30;1.00;;;;;;;18.34;91.90;92771.59;5012922;28;20064;-82
2021/07/02 02:37:46;;;;;;;2.85;1.00;;;;;;;18.36;91.85;92772.09;5012630;28;20061;-83
2021/07/02 02:40:13;;;;;;;1.40;1.00;;;;;;;18.38;91.71;92767.41;5012845;28;20461;-83
2021/07/02 02:42:40;;;;;;;2.90;2.10;;;;;;;18.43;91.27;92768.16;5012864;28;20049;-83
2021/07/02 02:45:08;;;;;;;1.70;1.13;;;;;;;18.49;90.86;92770.72;5012716;28;20050;-83
2021/07/02 02:47:36;;;;;;;4.55;1.00;;;;;;;18.28;91.48;92769.00;5012436;28;20050;-83
2021/07/02 02:50:04;;;;;;;3.22;1.10;;;;;;;18.17;91.93;92775.31;5012429;28;20061;-83
2021/07/02 02:52:31;;;;;;;0.85;0.55;;;;;;;18.30;91.44;92777.31;5012498;28;20539;-83
2021/07/02 02:54:57;;;;;;;1.25;0.60;;;;;;;18.30;90.65;92773.94;5012355;28;20100;-84
2021/07/02 02:57:24;;;;;;;1.30;0.80;;;;;;;18.26;90.94;92778.13;5012375;28;20127;-82
2021/07/02 02:59:51;;;;;;;8.25;1.25;;;;;;;18.26;91.15;92781.50;5012399;28;20050;-83
2021/07/02 03:02:18;;;;;;;4.60;1.35;;;;;;;18.24;90.89;92780.22;5012267;28;20054;-84
2021/07/02 03:04:46;;;;;;;1.50;0.80;;;;;;;18.28;90.95;92789.81;5012204;28;20523;-83
2021/07/02 03:07:13;;;;;;;2.63;0.80;;;;;;;17.96;92.87;92782.41;5012468;28;20048;-83
2021/07/02 03:09:40;;;;;;;2.13;1.00;;;;;;;18.11;92.03;92792.75;5012181;28;20057;-83
2021/07/02 03:12:07;;;;;;;1.13;0.75;;;;;;;18.12;91.75;92790.94;5012338;28;20046;-83
2021/07/02 03:14:34;;;;;;;1.77;1.27;;;;;;;17.79;93.56;92796.47;5012220;28;20042;-83
2021/07/02 03:17:01;;;;;;;3.33;1.25;;;;;;;17.48;94.87;92791.34;5012106;28;20062;-83
2021/07/02 03:19:28;;;;;;;2.05;1.17;;;;;;;17.49;94.63;92792.91;5011872;28;20056;-83
2021/07/02 03:21:56;;;;;;;1.42;0.73;;;;;;;17.41;94.82;92791.59;5011917;28;20054;-83
2021/07/02 03:24:23;;;;;;;0.88;0.55;;;;;;;17.48;94.01;92794.72;5011988;28;20050;-83
2021/07/02 03:26:50;;;;;;;1.10;0.93;;;;;;;17.46;94.16;92799.38;5012190;28;20061;-83
2021/07/02 03:29:16;;;;;;;1.20;0.70;;;;;;;17.36;94.62;92802.78;5010877;28;20058;-82
2021/07/02 03:31:43;;;;;;;0.73;0.50;;;;;;;17.17;94.63;92783.63;5011873;28;20050;-83
2021/07/02 03:34:10;;;;;;;3.28;1.23;;;;;;;17.29;95.27;92804.88;5011749;28;20050;-82
2021/07/02 03:36:38;;;;;;;1.45;0.60;;;;;;;17.36;95.38;92804.63;5011928;28;20056;-82
2021/07/02 03:39:06;;;;;;;1.63;0.90;;;;;;;17.42;95.33;92807.97;5011748;28;20042;-83
2021/07/02 03:41:33;;;;;;;1.05;0.90;;;;;;;17.52;94.46;92807.19;5011798;28;20038;-83
2021/07/02 03:44:00;;;;;;;1.48;1.15;;;;;;;17.74;93.32;92812.84;5011680;28;20053;-83
2021/07/02 03:46:27;;;;;;;1.13;0.73;;;;;;;17.48;93.48;92809.53;5011401;28;20057;-82
2021/07/02 03:48:54;;;;;;;0.77;0.63;;;;;;;17.47;94.13;92810.56;5011395;28;20054;-84
2021/07/02 03:51:21;;;;;;;1.15;0.73;;;;;;;17.52;93.78;92796.78;5011600;28;20054;-83
2021/07/02 03:53:47;;;;;;;1.40;1.10;;;;;;;17.71;93.81;92821.19;5011560;28;20057;-83
2021/07/02 03:56:16;;;;;;;1.17;0.90;;;;;;;17.79;92.85;92825.06;5011536;28;20057;-83
2021/07/02 03:58:42;;;;;;;2.38;0.88;;;;;;;17.85;92.84;92823.22;5011410;28;20053;-83
2021/07/02 04:01:09;;;;;;;2.17;1.40;;;;;;;17.94;92.03;92831.22;5011244;28;20046;-83
2021/07/02 04:03:36;;;;;;;0.88;0.73;;;;;;;18.02;91.88;92828.88;5011762;28;20100;-82
2021/07/02 04:06:03;;;;;;;1.92;1.25;;;;;;;18.09;91.20;92827.84;5011365;28;20045;-83
2021/07/02 04:08:30;;;;;;;1.05;0.70;;;;;;;18.19;90.47;92835.59;5011287;28;20045;-83
2021/07/02 04:10:57;;;;;;;1.40;0.90;;;;;;;18.23;90.36;92833.25;5011202;28;20494;-83
2021/07/02 04:13:26;;;;;;;2.47;1.27;;;;;;;18.26;90.68;92838.72;5011061;28;20045;-84
2021/07/02 04:15:54;;;;;;;4.60;0.98;;;;;;;18.26;90.58;92841.31;5011089;28;20045;-82
2021/07/02 04:18:21;;;;;;;2.80;1.58;;;;;;;18.33;90.42;92835.03;5011349;28;20046;-83
2021/07/02 04:20:48;;;;;;;2.22;0.80;;;;;;;18.21;90.48;92817.94;5011233;28;20140;-82
2021/07/02 04:23:15;;;;;;;2.05;0.93;;;;;;;18.38;90.49;92838.38;5011095;28;20057;-82
2021/07/02 04:25:42;;;;;;;3.53;1.65;;;;;;;18.49;90.30;92833.91;5010909;28;20100;-83
2021/07/02 04:28:09;;;;;;;1.33;0.90;;;;;;;18.57;89.69;92843.00;5010725;28;20538;-83
2021/07/02 04:30:37;;;;;;;1.35;0.98;;;;;;;18.64;89.81;92835.66;5011190;28;20080;-83
2021/07/02 04:33:04;;;;;;;1.42;1.15;;;;;;;18.78;89.16;92846.25;5011102;28;20442;-83
2021/07/02 04:35:31;;;;;;;1.23;0.70;;;;;;;18.81;89.00;92852.72;5010999;28;20045;-84
2021/07/02 04:37:58;;;;;;;2.17;1.25;;;;;;;18.85;89.12;92855.56;5011054;28;20053;-83
2021/07/02 04:40:25;;;;;;;2.20;1.40;;;;;;;18.85;89.37;92847.75;5013277;28;20049;-83
2021/07/02 04:42:51;;;;;;;1.90;1.33;;;;;;;19.06;87.88;92845.81;5015086;28;20057;-83
2021/07/02 04:45:18;;;;;;;1.83;1.50;;;;;;;19.06;87.72;92849.22;5014953;28;20541;-83
2021/07/02 04:47:46;;;;;;;1.30;1.00;;;;;;;18.80;88.51;92859.00;5015122;28;20054;-82
2021/07/02 04:50:13;;;;;;;2.38;1.48;;;;;;;18.83;89.55;92853.22;5014877;28;20068;-83
2021/07/02 04:52:40;;;;;;;1.60;1.17;;;;;;;18.74;89.96;92862.66;5014690;28;20056;-82
2021/07/02 04:55:07;;;;;;;1.65;1.10;;;;;;;18.52;91.08;92861.22;5014602;28;20497;-83
2021/07/02 04:57:34;;;;;;;2.13;1.38;;;;;;;18.69;90.62;92863.47;5014959;28;20053;-82
2021/07/02 05:00:02;;;;;;;1.63;1.02;;;;;;;18.91;90.46;92864.91;5014858;28;20050;-84
2021/07/02 05:02:29;;;;;;;1.55;1.30;;;;;;;19.02;88.36;92866.38;5015028;28;20049;-82
2021/07/02 05:04:57;;;;;;;1.35;0.90;;;;;;;19.12;88.16;92857.75;5014633;28;20046;-83
2021/07/02 05:07:24;;;;;;;1.60;1.20;;;;;;;19.21;88.73;92866.53;5014505;28;20497;-82
2021/07/02 05:09:51;;;;;;;2.20;1.35;;;;;;;19.27;88.56;92859.50;4833016;28;5001190;-84
2021/07/02 05:12:18;;;;;;;1.48;1.00;;;;;;;19.28;87.99;92871.44;5014603;28;20046;-82
2021/07/02 05:14:45;;;;;;;1.42;0.90;;;;;;;18.92;89.21;92867.22;4987389;28;20054;-81
2021/07/02 05:17:12;;;;;;;1.42;0.90;;;;;;;18.85;91.33;92865.97;5014434;28;20100;-83
2021/07/02 05:19:41;;;;;;;3.20;1.50;;;;;;;18.87;90.72;92875.06;5014354;28;20054;-81
2021/07/02 05:22:13;;;;;;;1.77;0.85;;;;;;;19.00;89.72;92878.13;5014332;28;20097;-82
2021/07/02 05:24:41;;;;;;;1.45;1.05;;;;;;;19.25;88.96;92873.81;5014405;28;20045;-83
2021/07/02 05:27:08;;;;;;;1.58;1.25;;;;;;;19.46;87.21;92874.44;5013932;28;20153;-82
2021/07/02 05:29:35;;;;;;;4.93;1.98;;;;;;;19.70;87.08;92879.69;5013955;28;20062;-82
2021/07/02 05:32:02;;;;;;;2.00;1.17;;;;;;;18.82;89.26;92883.69;5014015;28;20482;-80
2021/07/02 05:34:28;;;;;;;2.10;1.13;;;;;;;19.14;88.89;92888.72;5014013;28;20065;-82
2021/07/02 05:36:55;;;;;;;2.33;1.38;;;;;;;19.44;87.66;92886.97;5013883;28;20057;-82
2021/07/02 05:39:23;;;;;;;5.28;2.35;;;;;;;19.45;87.56;92883.31;5013906;28;20058;-83
2021/07/02 05:41:50;;;;;;;2.53;1.45;;;;;;;19.71;85.76;92886.47;5013846;28;20065;-82
2021/07/02 05:44:17;;;;;;;2.03;1.35;;;;;;;19.46;85.86;92880.44;5013824;28;20050;-81
2021/07/02 05:46:44;;;;;;;1.80;1.50;;;;;;;19.65;85.40;92878.97;5013695;28;20046;-83
2021/07/02 05:49:12;;;;;;;4.53;1.63;;;;;;;20.01;84.63;92887.25;5011330;28;20522;-83
2021/07/02 05:51:39;;;;;;;2.25;1.88;;;;;;;20.20;83.59;92893.59;5012855;28;20053;-82
2021/07/02 05:54:06;;;;;;;2.00;1.75;;;;;;;20.43;81.55;92895.41;5013859;28;20057;-84
2021/07/02 05:56:34;;;;;;;2.63;1.42;;;;;;;20.60;80.98;92899.38;5013609;28;20046;-83
2021/07/02 05:59:01;;;;;;;2.55;1.50;;;;;;;20.40;81.64;92895.19;5013675;28;20049;-82
2021/07/02 06:01:29;;;;;;;2.88;2.08;;;;;;;20.61;81.68;92894.94;5013562;28;20050;-83
2021/07/02 06:03:56;;;;;;;5.07;1.92;;;;;;;21.07;79.83;92891.00;5013343;28;20057;-89
2021/07/02 06:06:23;;;;;;;3.60;2.03;;;;;;;21.44;78.43;92893.84;5013374;28;20046;-82
2021/07/02 06:08:52;;;;;;;4.57;1.58;;;;;;;21.69;75.60;92887.44;5013507;28;20054;-83
2021/07/02 06:11:19;;;;;;;1.27;1.02;;;;;;;21.65;75.06;92883.84;5013245;28;20054;-81
2021/07/02 06:13:48;;;;;;;1.83;1.17;;;;;;;22.05;75.64;92890.50;5013752;28;20050;-83
2021/07/02 06:16:14;;;;;;;1.95;1.45;;;;;;;22.35;72.85;92889.16;5013331;28;20069;-85
2021/07/02 06:18:41;;;;;;;2.53;1.27;;;;;;;22.64;72.56;92897.81;5013005;28;20053;-82
2021/07/02 06:21:08;;;;;;;1.63;1.27;;;;;;;22.60;71.08;92896.84;5013396;28;20096;-84
2021/07/02 06:23:37;;;;;;;1.63;1.10;;;;;;;22.64;71.24;92900.44;5013074;28;20046;-84
2021/07/02 06:26:04;;;;;;;3.08;2.15;;;;;;;22.33;72.66;92901.00;5013110;28;20120;-85
2021/07/02 06:28:32;;;;;;;1.85;1.45;;;;;;;22.74;69.72;92904.69;5012898;28;20054;-83
2021/07/02 06:31:00;;;;;;;2.13;1.38;;;;;;;23.09;69.53;92900.53;5012802;28;20056;-82
2021/07/02 06:33:27;;;;;;;2.33;1.45;;;;;;;23.29;67.94;92901.13;5012951;28;20064;-82
2021/07/02 06:35:54;;;;;;;1.95;1.33;;;;;;;23.51;66.57;92904.88;5013083;28;20046;-84
2021/07/02 06:38:21;;;;;;;2.92;1.42;;;;;;;23.79;65.94;92899.47;5013078;28;20046;-84
2021/07/02 06:40:48;;;;;;;1.55;0.90;;;;;;;23.84;64.83;92906.47;5013070;28;20053;-82
2021/07/02 06:43:15;;;;;;;2.20;1.33;;;;;;;23.96;64.63;92911.16;5012750;28;20050;-82
2021/07/02 06:45:42;;;;;;;1.67;1.25;;;;;;;22.50;67.83;92893.31;5012587;28;20053;-83
2021/07/02 06:48:11;;;;;;;1.75;1.25;;;;;;;22.16;69.84;92915.41;5012490;28;20409;-82
2021/07/02 06:50:42;;;;;;;2.42;1.38;;;;;;;21.47;73.17;92922.78;5012595;28;20049;-81
2021/07/02 06:53:09;;;;;;;1.50;1.08;;;;;;;21.15;75.53;92918.31;5012791;28;20493;-84
2021/07/02 06:55:36;;;;;;;2.33;1.73;;;;;;;20.77;76.73;92911.19;5012482;28;20046;-81
2021/07/02 06:58:04;;;;;;;2.20;1.75;;;;;;;20.47;79.10;92911.28;5014436;28;20041;-81
2021/07/02 07:00:31;;;;;;;1.60;1.20;;;;;;;20.61;77.80;92918.44;5032150;28;20050;-80
2021/07/02 07:02:58;;;;;;;1.33;0.93;;;;;;;20.92;75.23;92923.31;5031919;28;20045;-85
2021/07/02 07:05:26;;;;;;;1.45;1.30;;;;;;;21.20;74.35;92916.38;5032169;28;20100;-86
2021/07/02 07:07:53;;;;;;;2.13;1.42;;;;;;;21.17;73.58;92883.00;5031568;28;20534;-83
2021/07/02 07:10:20;;;;;;;1.55;1.10;;;;;;;21.78;73.57;92926.78;5031957;28;20513;-81
2021/07/02 07:12:47;;;;;;;2.47;1.52;;;;;;;21.87;71.54;92932.13;5031878;28;20056;-82
2021/07/02 07:15:15;;;;;;;1.83;1.13;;;;;;;21.49;72.14;92928.50;5032044;28;20056;-81
2021/07/02 07:17:42;;;;;;;2.13;1.08;;;;;;;20.72;75.51;92927.69;5031732;28;20057;-81
2021/07/02 07:20:10;;;;;;;2.28;1.45;;;;;;;20.59;76.42;92936.22;5031863;28;20052;-81
2021/07/02 07:22:38;;;;;;;1.98;1.55;;;;;;;20.79;75.96;92930.72;5031754;28;20053;-81
2021/07/02 07:25:06;;;;;;;2.33;1.45;;;;;;;21.20;74.78;92926.06;5031675;28;20041;-82
2021/07/02 07:27:33;;;;;;;2.25;1.10;;;;;;;21.01;74.22;92928.69;5031776;28;20049;-82
2021/07/02 07:30:00;;;;;;;2.03;1.65;;;;;;;20.95;73.77;92943.63;5031438;28;20053;-80
2021/07/02 07:32:27;;;;;;;2.25;1.63;;;;;;;20.64;74.77;92949.97;5031826;28;20049;-85
2021/07/02 07:34:55;;;;;;;1.50;1.35;;;;;;;21.11;74.51;92946.81;5031442;28;20056;-85
2021/07/02 07:37:23;;;;;;;2.40;1.90;;;;;;;21.56;71.71;92953.53;5031298;28;20061;-84
2021/07/02 07:39:51;;;;;;;2.20;1.27;;;;;;;21.78;71.01;92965.22;5031345;28;20049;-81
2021/07/02 07:42:19;;;;;;;2.60;1.42;;;;;;;21.58;70.91;92939.06;5031712;28;20079;-81
2021/07/02 07:44:46;;;;;;;2.70;2.00;;;;;;;21.76;69.33;92936.78;5031600;28;20064;-82
2021/07/02 07:47:13;;;;;;;13.25;1.42;;;;;;;22.31;67.12;92950.22;5031480;28;20068;-81
2021/07/02 07:49:43;;;;;;;1.63;1.17;;;;;;;22.11;68.60;92959.97;5031260;28;20064;-82
2021/07/02 07:52:15;;;;;;;6.60;3.30;;;;;;;21.99;69.14;92955.97;5031047;28;20046;-81
2021/07/02 07:54:43;;;;;;;2.63;1.98;;;;;;;21.86;70.31;92964.56;5031266;28;20054;-86
2021/07/02 07:57:11;;;;;;;2.22;1.40;;;;;;;21.93;68.76;92957.13;5031224;28;20494;-82
2021/07/02 07:59:38;;;;;;;2.08;1.40;;;;;;;22.01;68.52;92955.69;5031247;28;20063;-81
2021/07/02 08:02:06;;;;;;;2.45;1.70;;;;;;;22.54;66.66;92959.75;5031323;28;20119;-83
2021/07/02 08:04:32;;;;;;;1.88;1.55;;;;;;;22.80;64.66;92955.88;5031004;28;20053;-82
2021/07/02 08:06:59;;;;;;;1.73;1.00;;;;;;;23.07;63.14;92962.16;5030782;28;20048;-81
2021/07/02 08:09:27;;;;;;;1.25;0.73;;;;;;;23.34;62.78;92965.81;5031100;28;20053;-83
2021/07/02 08:11:54;;;;;;;2.38;1.83;;;;;;;23.29;62.21;92940.44;5031101;28;20049;-84
2021/07/02 08:14:22;;;;;;;1.73;0.98;;;;;;;23.25;62.74;92959.69;5030403;28;20597;-81
2021/07/02 08:16:49;;;;;;;1.67;1.17;;;;;;;22.70;62.21;92962.09;5030775;28;20132;-81
2021/07/02 08:19:16;;;;;;;2.08;1.55;;;;;;;22.52;64.20;92958.47;5027436;28;20053;-82
2021/07/02 08:21:43;;;;;;;1.63;1.15;;;;;;;22.09;64.75;92954.28;5030856;28;20053;-80
2021/07/02 08:24:10;;;;;;;1.95;1.38;;;;;;;22.76;63.09;92945.22;5031013;28;20409;-83
2021/07/02 08:26:37;;;;;;;2.83;1.75;;;;;;;22.78;63.65;92952.78;5030812;28;20061;-82
2021/07/02 08:31:50;;;;;;;1.50;1.00;;;;;;;22.80;63.29;92946.19;5030745;28;20437;-82
2021/07/02 08:34:17;;;;;;;2.22;1.40;;;;;;;23.20;63.21;92953.47;5030633;28;20060;-82
2021/07/02 08:36:44;;;;;;;1.60;1.10;;;;;;;22.67;62.95;92958.22;5030612;28;20466;-83
2021/07/02 08:39:11;;;;;;;1.85;1.25;;;;;;;23.25;62.68;92949.19;5030570;28;20045;-87
2021/07/02 08:41:38;;;;;;;3.08;2.13;;;;;;;24.01;58.46;92953.78;5030698;28;20056;-86
2021/07/02 08:44:05;;;;;;;1.98;1.48;;;;;;;23.56;60.63;92954.56;5030540;28;20057;-81
2021/07/02 08:46:35;;;;;;;2.13;1.30;;;;;;;23.74;58.78;92955.47;5030583;28;20068;-81
2021/07/02 08:49:04;;;;;;;2.53;1.58;;;;;;;23.43;61.32;92956.19;5030634;28;20053;-82
2021/07/02 08:51:32;;;;;;;2.40;1.65;;;;;;;23.28;60.37;92957.25;5030784;28;20056;-79
2021/07/02 08:53:59;;;;;;;2.20;1.40;;;;;;;23.55;60.47;92941.78;5030126;28;20049;-81
2021/07/02 08:56:26;;;;;;;1.45;0.95;;;;;;;24.19;58.80;92940.00;5030623;28;20416;-81
2021/07/02 08:58:53;;;;;;;2.17;1.30;;;;;;;24.40;56.93;92950.75;5030377;28;20072;-79
2021/07/02 09:01:41;;;;;;;5.13;1.00;;;;;;;24.88;56.53;92961.56;5030615;28;20084;-80
2021/07/02 09:04:24;;;;;;;2.25;1.00;;;;;;;23.89;56.81;92953.56;5030308;28;20504;-81
2021/07/02 09:07:15;;;;;;;2.70;1.52;;;;;;;24.10;57.69;92959.09;5030380;28;20132;-83
2021/07/02 09:09:55;;;;;;;1.85;1.15;;;;;;;24.33;57.43;92953.00;5015925;28;20418;-81
2021/07/02 09:12:23;;;;;;;1.58;1.17;;;;;;;24.50;56.97;92889.31;5030489;28;20050;-81
2021/07/02 09:15:07;;;;;;;1.98;1.23;;;;;;;24.41;55.77;92952.28;5030440;28;20409;-79
2021/07/02 09:17:36;;;;;;;1.75;1.08;;;;;;;24.29;54.19;92947.59;5030204;28;20056;-81
2021/07/02 09:20:08;;;;;;;1.73;1.17;;;;;;;24.38;55.07;92948.41;5030459;28;20057;-89
2021/07/02 09:22:47;;;;;;;1.17;0.90;;;;;;;24.92;53.04;92944.13;5030449;28;20049;-85
2021/07/02 09:25:23;;;;;;;1.52;1.13;;;;;;;25.34;52.10;92946.34;5030325;28;20053;-81
2021/07/02 09:27:50;;;;;;;1.80;1.08;;;;;;;25.81;50.63;92934.41;5033115;28;20144;-82
2021/07/02 09:30:19;;;;;;;0.95;0.68;;;;;;;25.64;52.05;92940.47;5033595;28;20493;-80
2021/07/02 09:32:47;;;;;;;2.03;1.25;;;;;;;25.21;52.06;92927.00;5033986;28;20037;-81
2021/07/02 09:35:18;;;;;;;1.73;0.80;;;;;;;25.04;52.68;92948.78;5033921;28;20041;-81
2021/07/02 09:37:48;;;;;;;2.63;1.75;;;;;;;25.58;52.14;92932.75;5033734;28;20092;-83
2021/07/02 09:40:18;;;;;;;2.65;1.10;;;;;;;26.05;51.74;92933.13;5033748;28;20136;-84
2021/07/02 09:42:45;;;;;;;2.22;1.52;;;;;;;26.11;50.47;92937.16;5033490;28;20046;-79
2021/07/02 09:45:14;;;;;;;1.60;1.17;;;;;;;25.81;51.04;92940.47;5033867;28;20398;-81
2021/07/02 09:47:42;;;;;;;1.15;0.85;;;;;;;24.99;50.39;92939.19;5033607;28;20049;-79
2021/07/02 09:50:26;;;;;;;1.27;0.77;;;;;;;24.92;51.68;92938.88;5033389;28;20494;-80
2021/07/02 09:52:55;;;;;;;1.80;1.38;;;;;;;24.75;51.36;92934.31;5033530;28;20046;-82
2021/07/02 09:55:24;;;;;;;2.17;1.25;;;;;;;25.27;52.17;92933.66;5033229;28;20095;-86
2021/07/02 09:57:54;;;;;;;1.90;1.17;;;;;;;25.35;49.69;92919.75;5033364;28;20511;-81
2021/07/02 10:00:21;;;;;;;0.90;0.57;;;;;;;25.79;48.10;92926.84;5033424;28;20057;-81
2021/07/02 10:02:56;;;;;;;1.67;1.02;;;;;;;26.35;48.56;92918.19;5033224;28;20060;-81
2021/07/02 10:05:25;;;;;;;1.53;0.93;;;;;;;26.64;47.51;92910.63;5033232;28;20068;-80
2021/07/02 10:08:00;;;;;;;0.95;0.60;;;;;;;26.76;46.43;92921.25;5033238;28;20294;-81
2021/07/02 10:10:27;;;;;;;;;;;;;;;26.84;47.30;92908.34;5033668;28;20053;-82
2021/07/02 10:12:56;;;;;;;0.82;0.60;;;;;;;27.26;45.09;92905.75;5033149;28;19925;-80
2021/07/02 10:15:23;;;;;;;1.10;0.80;;;;;;;26.27;45.88;92898.72;5032951;28;20064;-77
2021/07/02 10:17:51;;;;;;;0.90;0.73;;;;;;;25.79;45.60;92897.91;5032931;28;20052;-77
2021/07/02 10:20:19;;;;;;;2.17;1.33;;;;;;;26.51;46.30;92899.22;5032754;28;20053;-81
2021/07/02 10:22:48;;;;;;;1.00;0.50;;;;;;;26.50;47.12;92893.19;5032870;28;20053;-81
2021/07/02 10:25:18;;;;;;;1.00;0.60;;;;;;;27.38;43.99;92898.97;5028779;28;20128;-82
2021/07/02 10:27:45;;;;;;;1.33;0.77;;;;;;;27.60;43.19;92903.94;5032884;28;20132;-82
2021/07/02 10:30:13;;;;;;;1.05;0.50;;;;;;;27.93;42.38;92888.41;5032881;28;20103;-81
2021/07/02 10:32:41;;;;;;;1.45;0.43;;;;;;;28.33;42.32;92885.16;5032681;28;20053;-83
2021/07/02 10:35:13;;;;;;;0.75;0.22;;;;;;;28.01;42.98;92895.47;5032865;28;20049;-90
2021/07/02 10:37:40;;;;;;;1.50;0.50;;;;;;;28.40;42.70;92879.34;5032476;28;20103;-88
2021/07/02 10:40:31;;;;;;;0.73;0.35;;;;;;;28.69;41.33;92882.84;5032520;28;20053;-81
2021/07/02 10:43:18;;;;;;;1.30;0.60;;;;;;;28.59;40.68;92872.75;5032545;28;20137;-80
2021/07/02 10:46:11;;;;;;;1.23;0.52;;;;;;;28.46;41.47;92878.03;5032528;28;20548;-80
2021/07/02 10:48:49;;;;;;;1.95;0.70;;;;;;;28.51;41.62;92877.81;5024518;28;20095;-90
2021/07/02 10:51:49;;;;;;;1.10;0.68;;;;;;;28.32;41.12;92874.97;5032308;28;20057;-83
2021/07/02 10:54:35;;;;;;;1.00;0.47;;;;;;;27.17;43.58;92882.09;5032433;28;20049;-83
2021/07/02 10:57:11;;;;;;;0.95;0.40;;;;;;;26.98;43.08;92874.63;5032407;28;21070;-82
2021/07/02 11:00:11;;;;;;;0.60;0.50;;;;;;;27.41;42.71;92870.13;5032098;28;20497;-82
2021/07/02 11:02:39;;;;;;;0.63;0.30;;;;;;;26.99;41.97;92865.66;5028618;28;20050;-83
2021/07/02 11:05:31;;;;;;;0.93;0.50;;;;;;;25.93;45.47;92868.78;5032315;28;20072;-80
2021/07/02 11:07:59;;;;;;;0.55;0.38;;;;;;;26.30;46.23;92878.88;5032049;28;20053;-82
2021/07/02 11:10:26;;;;;;;0.85;0.52;;;;;;;26.59;44.91;92872.06;5031932;28;20053;-89
2021/07/02 11:13:04;;;;;;;0.88;0.50;;;;;;;26.67;45.08;92865.22;5017211;28;20558;-81
2021/07/02 11:15:32;;;;;;;1.08;0.47;;;;;;;27.11;43.58;92874.72;5017185;28;20056;-81
2021/07/02 11:18:18;;;;;;;0.70;0.40;;;;;;;27.36;43.14;92854.50;5021888;28;20437;-82
2021/07/02 11:20:46;;;;;;;0.65;0.40;;;;;;;26.55;44.61;92858.78;5031681;28;20081;-82
2021/07/02 11:23:17;;;;;;;1.45;0.47;;;;;;;26.78;43.51;92871.66;5031904;28;20433;-80
2021/07/02 11:25:49;;;;;;;0.60;0.38;;;;;;;26.50;42.50;92861.59;5031729;28;20059;-84
2021/07/02 11:28:40;;;;;;;1.02;0.60;;;;;;;25.96;44.20;92836.56;5031698;28;20103;-80
2021/07/02 11:31:09;;;;;;;1.23;0.68;;;;;;;26.77;43.27;92849.03;5031352;28;20624;-86
2021/07/02 11:33:37;;;;;;;1.05;0.75;;;;;;;27.24;42.94;92849.94;5031744;28;20050;-79
2021/07/02 11:36:12;;;;;;;2.22;0.90;;;;;;;27.51;41.98;92841.78;5013967;28;20046;-82
2021/07/02 11:38:54;;;;;;;0.60;0.50;;;;;;;27.57;41.10;92851.81;5011791;28;20502;-79
2021/07/02 11:41:28;;;;;;;4.60;0.50;;;;;;;27.74;39.75;92835.06;5005375;28;20055;-82
2021/07/02 11:43:57;;;;;;;1.02;0.52;;;;;;;27.93;39.34;92835.63;5028871;28;20414;-81